Latest METARs, TAFs and NOTAMs for TBPB


---------------------------------------------------------------------------
	(OBSERVATIONS)
TBPB 221600Z 16008KT 9999 FEW020 31/26 Q1014 NOSIG=
TBPB 221500Z 15008KT 9999 FEW020 31/26 Q1014 NOSIG=
---------------------------------------------------------------------------
	(TERMINAL AREA FORECAST)
TBPB 221600Z 2218/2318 NIL=
---------------------------------------------------------------------------
	(NOTAMS)


TBPB A1129/17 ILS LLZ 'IBGI' 110.10MHZ RWY09 SUBJ INTRP DUE TO
    GRASS CUTTING. DLY BTN 1200-1600, 23 AUG 12:00 2017 UNTIL
    24 AUG 16:00 2017. CREATED: 16 AUG 20:36 2017

---------------------------------------------------------------------------